createdAt,value
2023-04-12T00:01:55.499Z,92.90
2023-04-12T00:04:29.448Z,87.70
2023-04-12T00:07:03.342Z,84.00
2023-04-12T00:09:38.189Z,94.70
2023-04-12T00:12:11.626Z,93.70
2023-04-12T00:14:44.327Z,95.50
2023-04-12T00:17:17.299Z,109.20
2023-04-12T00:19:50.300Z,89.60
2023-04-12T00:22:28.805Z,72.20
2023-04-12T00:25:02.136Z,59.10
2023-04-12T00:27:35.840Z,59.90
2023-04-12T00:30:14.629Z,56.90
2023-04-12T00:32:49.290Z,36.90
2023-04-12T00:35:23.448Z,38.50
2023-04-12T00:37:57.508Z,48.50
2023-04-12T00:40:30.313Z,43.20
2023-04-12T00:43:04.671Z,39.90
2023-04-12T00:45:38.737Z,34.90
2023-04-12T00:48:17.755Z,37.50
2023-04-12T00:50:55.848Z,45.70
2023-04-12T00:53:29.666Z,43.00
2023-04-12T00:56:03.844Z,50.40
2023-04-12T00:58:37.185Z,47.90
2023-04-12T01:01:11.412Z,50.70
2023-04-12T01:03:48.863Z,59.20
2023-04-12T01:06:30.142Z,48.90
2023-04-12T01:09:05.823Z,63.20
2023-04-12T01:11:39.831Z,66.60
2023-04-12T01:14:16.463Z,61.70
2023-04-12T01:16:51.863Z,48.50
2023-04-12T01:19:46.440Z,47.10
2023-04-12T01:22:31.573Z,34.90
2023-04-12T01:25:14.386Z,34.90
2023-04-12T01:27:49.906Z,26.10
2023-04-12T01:30:24.871Z,38.90
2023-04-12T01:32:58.771Z,34.90
2023-04-12T01:35:34.922Z,31.30
2023-04-12T01:38:08.271Z,40.10
2023-04-12T01:40:43.185Z,30.60
2023-04-12T01:43:16.990Z,30.10
2023-04-12T01:45:50.762Z,31.20
2023-04-12T01:48:23.691Z,34.40
2023-04-12T01:51:05.755Z,27.30
2023-04-12T01:53:45.075Z,26.60
2023-04-12T01:56:21.515Z,19.50
2023-04-12T01:58:55.281Z,28.10
2023-04-12T02:01:29.454Z,21.90
2023-04-12T02:04:04.920Z,29.50
2023-04-12T02:06:37.902Z,30.30
2023-04-12T02:09:10.900Z,21.90
2023-04-12T02:11:49.941Z,26.70
2023-04-12T02:14:22.943Z,24.10
2023-04-12T02:16:56.344Z,35.00
2023-04-12T02:19:30.391Z,25.70
2023-04-12T02:22:04.645Z,20.50
2023-04-12T02:24:42.612Z,49.00
2023-04-12T02:27:19.101Z,32.20
2023-04-12T02:29:51.848Z,37.70
2023-04-12T02:32:25.166Z,33.30
2023-04-12T02:34:59.516Z,32.60
2023-04-12T02:37:34.979Z,25.00
2023-04-12T02:40:11.824Z,17.00
2023-04-12T02:42:44.887Z,18.20
2023-04-12T02:45:18.685Z,14.00
2023-04-12T02:47:55.101Z,23.80
2023-04-12T02:50:31.850Z,25.20
2023-04-12T02:53:13.632Z,28.60
2023-04-12T02:55:48.518Z,22.80
2023-04-12T02:58:22.330Z,26.50
2023-04-12T03:00:57.650Z,40.10
2023-04-12T03:03:33.616Z,25.50
2023-04-12T03:06:12.640Z,33.00
2023-04-12T03:08:47.477Z,46.80
2023-04-12T03:11:20.746Z,45.80
2023-04-12T03:13:54.278Z,62.90
2023-04-12T03:16:30.063Z,82.00
2023-04-12T03:19:11.311Z,83.90
2023-04-12T03:21:48.090Z,86.10
2023-04-12T03:24:21.804Z,90.60
2023-04-12T03:26:55.373Z,80.80
2023-04-12T03:29:30.684Z,86.40
2023-04-12T03:32:03.995Z,77.90
2023-04-12T03:34:38.165Z,65.40
2023-04-12T03:37:17.345Z,65.10
2023-04-12T03:39:50.400Z,56.90
2023-04-12T03:42:33.601Z,70.50
2023-04-12T03:45:21.069Z,59.70
2023-04-12T03:47:58.249Z,71.90
2023-04-12T03:50:44.822Z,82.60
2023-04-12T03:55:55.174Z,105.50
2023-04-12T03:58:35.104Z,106.70
2023-04-12T04:01:09.484Z,101.70
2023-04-12T04:03:43.868Z,99.00
2023-04-12T04:06:26.938Z,99.90
2023-04-12T04:09:01.585Z,85.10
2023-04-12T04:11:35.835Z,76.70
2023-04-12T04:14:12.012Z,86.30
2023-04-12T04:16:45.337Z,82.60
2023-04-12T04:19:18.952Z,98.70
2023-04-12T04:21:56.574Z,85.50
2023-04-12T04:24:30.365Z,80.80
2023-04-12T04:27:06.720Z,73.40
2023-04-12T04:29:45.489Z,69.90
2023-04-12T04:32:20.330Z,70.00
2023-04-12T04:34:54.084Z,67.70
2023-04-12T04:37:28.392Z,56.60
2023-04-12T04:40:11.875Z,54.20
2023-04-12T04:42:46.764Z,56.10
2023-04-12T04:45:22.315Z,48.20
2023-04-12T04:47:55.561Z,52.60
2023-04-12T04:50:32.452Z,55.40
2023-04-12T04:53:06.162Z,41.80
2023-04-12T04:55:39.120Z,34.70
2023-04-12T04:58:13.817Z,35.90
2023-04-12T05:00:49.312Z,35.70
2023-04-12T05:03:23.135Z,31.10
2023-04-12T05:05:56.649Z,50.80
2023-04-12T05:08:30.024Z,48.70
2023-04-12T05:11:03.904Z,40.10
2023-04-12T05:13:38.430Z,41.40
2023-04-12T05:16:13.154Z,39.00
2023-04-12T05:18:50.579Z,51.90
2023-04-12T05:21:24.674Z,38.90
2023-04-12T05:23:58.472Z,35.40
2023-04-12T05:26:33.580Z,36.60
2023-04-12T05:29:07.571Z,36.20
2023-04-12T05:31:40.685Z,30.80
2023-04-12T05:34:17.739Z,41.90
2023-04-12T05:36:59.817Z,32.90
2023-04-12T05:39:43.773Z,40.60
2023-04-12T05:42:16.883Z,52.90
2023-04-12T05:44:51.127Z,44.40
2023-04-12T05:47:24.933Z,51.40
2023-04-12T05:49:58.570Z,40.30
2023-04-12T05:52:39.551Z,47.80
2023-04-12T05:55:13.365Z,48.30
2023-04-12T05:57:48.084Z,53.10
2023-04-12T06:00:29.096Z,35.60
2023-04-12T06:03:02.909Z,31.40
2023-04-12T06:05:37.222Z,31.70
2023-04-12T06:08:13.427Z,26.60
2023-04-12T06:10:47.628Z,22.50
2023-04-12T06:13:21.143Z,25.40
2023-04-12T06:15:55.431Z,18.90
2023-04-12T06:18:29.118Z,15.40
2023-04-12T06:21:05.924Z,25.80
2023-04-12T06:23:40.221Z,19.20
2023-04-12T06:26:13.173Z,20.90
2023-04-12T06:28:46.372Z,19.40
2023-04-12T06:31:20.519Z,14.00
2023-04-12T06:33:53.962Z,15.60
2023-04-12T06:36:27.537Z,18.20
2023-04-12T06:39:00.563Z,22.20
2023-04-12T06:41:33.671Z,20.10
2023-04-12T06:44:07.807Z,14.90
2023-04-12T06:46:44.537Z,22.20
2023-04-12T06:49:18.096Z,17.70
2023-04-12T06:51:51.499Z,19.40
2023-04-12T06:54:24.366Z,24.60
2023-04-12T06:56:58.070Z,24.00
2023-04-12T06:59:31.438Z,32.00
2023-04-12T07:02:04.132Z,33.90
2023-04-12T07:04:37.049Z,33.10
2023-04-12T07:07:11.713Z,25.80
2023-04-12T07:09:45.534Z,30.80
2023-04-12T07:12:18.152Z,32.80
2023-04-12T07:14:54.987Z,21.70
2023-04-12T07:17:28.418Z,19.90
2023-04-12T07:20:01.916Z,24.10
2023-04-12T07:22:47.743Z,18.50
2023-04-12T07:25:21.329Z,22.40
2023-04-12T07:27:53.912Z,15.40
2023-04-12T07:30:26.754Z,17.00
2023-04-12T07:33:12.415Z,30.50
2023-04-12T07:35:53.958Z,19.20
2023-04-12T07:38:27.066Z,23.00
2023-04-12T07:40:59.643Z,21.70
2023-04-12T07:43:32.778Z,15.80
2023-04-12T07:46:08.937Z,21.40
2023-04-12T07:48:44.478Z,18.00
2023-04-12T07:51:17.972Z,28.20
2023-04-12T07:53:50.787Z,16.40
2023-04-12T07:56:23.588Z,14.70
2023-04-12T07:58:57.333Z,9.00
2023-04-12T08:01:40.022Z,12.40
2023-04-12T08:04:13.489Z,11.50
2023-04-12T08:06:46.398Z,15.50
2023-04-12T08:09:20.735Z,16.40
2023-04-12T08:11:53.634Z,11.40
2023-04-12T08:14:31.719Z,13.10
2023-04-12T08:17:05.887Z,11.90
2023-04-12T08:19:39.281Z,9.80
2023-04-12T08:22:14.370Z,16.60
2023-04-12T08:24:50.137Z,18.60
2023-04-12T08:27:23.271Z,15.80
2023-04-12T08:29:57.434Z,16.30
2023-04-12T08:32:30.173Z,18.70
2023-04-12T08:35:02.776Z,16.90
2023-04-12T08:37:36.513Z,22.10
2023-04-12T08:40:10.706Z,14.10
2023-04-12T08:42:43.387Z,13.60
2023-04-12T08:45:17.184Z,14.50
2023-04-12T08:47:50.830Z,15.30
2023-04-12T08:50:25.045Z,21.10
2023-04-12T08:52:58.021Z,18.70
2023-04-12T08:55:30.742Z,24.90
2023-04-12T08:58:07.604Z,17.10
2023-04-12T09:00:41.281Z,17.20
2023-04-12T09:03:14.313Z,20.20
2023-04-12T09:05:47.886Z,25.30
2023-04-12T09:08:21.160Z,34.70
2023-04-12T09:10:56.893Z,46.90
2023-04-12T09:13:37.320Z,50.90
2023-04-12T09:16:11.203Z,37.60
2023-04-12T09:18:53.359Z,35.70
2023-04-12T09:21:27.578Z,29.30
2023-04-12T09:24:12.283Z,21.80
2023-04-12T09:26:46.631Z,19.40
2023-04-12T09:29:26.695Z,13.00
2023-04-12T09:32:03.571Z,15.00
2023-04-12T09:34:39.075Z,9.80
2023-04-12T09:37:17.696Z,14.60
2023-04-12T09:40:04.714Z,24.90
2023-04-12T09:42:38.514Z,22.90
2023-04-12T09:45:25.804Z,13.40
2023-04-12T09:47:58.805Z,11.20
2023-04-12T09:50:33.706Z,25.60
2023-04-12T09:53:18.579Z,26.00
2023-04-12T09:55:51.913Z,20.80
2023-04-12T09:58:25.529Z,12.10
2023-04-12T10:00:58.426Z,19.50
2023-04-12T10:03:32.599Z,18.30
2023-04-12T10:06:06.259Z,22.30
2023-04-12T10:08:39.804Z,28.30
2023-04-12T10:11:12.865Z,38.60
2023-04-12T10:13:45.529Z,45.60
2023-04-12T10:16:18.414Z,49.10
2023-04-12T10:18:52.685Z,49.40
2023-04-12T10:21:26.447Z,54.50
2023-04-12T10:24:07.343Z,55.10
2023-04-12T10:26:44.569Z,47.70
2023-04-12T10:29:27.716Z,38.10
2023-04-12T10:32:01.687Z,44.70
2023-04-12T10:34:35.203Z,41.60
2023-04-12T10:37:08.416Z,44.70
2023-04-12T10:39:42.494Z,39.30
2023-04-12T10:42:27.219Z,63.90
2023-04-12T10:45:40.646Z,69.00
2023-04-12T10:48:37.296Z,39.20
2023-04-12T10:51:23.672Z,31.30
2023-04-12T10:54:16.758Z,31.10
2023-04-12T10:56:50.698Z,24.40
2023-04-12T10:59:59.700Z,29.10
2023-04-12T11:02:36.781Z,29.10
2023-04-12T11:05:11.578Z,29.30
2023-04-12T11:08:10.488Z,35.40
2023-04-12T11:10:50.417Z,21.10
2023-04-12T11:13:28.931Z,18.50
2023-04-12T11:16:08.086Z,29.20
2023-04-12T11:18:41.301Z,22.80
2023-04-12T11:21:14.719Z,25.10
2023-04-12T11:23:49.803Z,17.40
2023-04-12T11:26:23.759Z,20.30
2023-04-12T11:28:56.574Z,33.70
2023-04-12T11:31:29.452Z,38.10
2023-04-12T11:34:02.534Z,31.10
2023-04-12T11:36:35.165Z,23.50
2023-04-12T11:39:08.402Z,27.20
2023-04-12T11:41:41.965Z,32.70
2023-04-12T11:44:15.522Z,31.00
2023-04-12T11:46:48.545Z,22.70
2023-04-12T11:49:26.119Z,18.20
2023-04-12T11:52:06.064Z,31.60
2023-04-12T11:54:39.441Z,48.40
2023-04-12T11:57:14.992Z,40.30
2023-04-12T11:59:52.738Z,43.70
2023-04-12T12:02:29.117Z,50.00
2023-04-12T12:05:05.293Z,37.30
2023-04-12T12:07:38.422Z,30.80
2023-04-12T12:10:18.429Z,27.50
2023-04-12T12:13:01.775Z,27.60
2023-04-12T12:15:34.429Z,18.70
2023-04-12T12:18:12.219Z,25.60
2023-04-12T12:20:48.893Z,26.80
2023-04-12T12:23:35.888Z,27.50
2023-04-12T12:26:18.876Z,21.50
2023-04-12T12:28:54.271Z,31.00
2023-04-12T12:31:28.164Z,26.10
2023-04-12T12:34:04.192Z,33.10
2023-04-12T12:36:39.307Z,36.00
2023-04-12T12:39:15.731Z,50.50
2023-04-12T12:41:54.336Z,67.60
2023-04-12T12:44:29.002Z,56.40
2023-04-12T12:47:13.513Z,67.50
2023-04-12T12:49:46.992Z,61.20
2023-04-12T12:52:20.224Z,51.90
2023-04-12T12:54:52.939Z,53.90
2023-04-12T12:57:27.814Z,43.80
2023-04-12T13:00:00.542Z,31.30
2023-04-12T13:02:35.500Z,25.90
2023-04-12T13:05:11.712Z,29.60
2023-04-12T13:07:45.777Z,34.90
2023-04-12T13:10:18.392Z,41.60
2023-04-12T13:12:51.707Z,33.80
2023-04-12T13:15:25.017Z,47.20
2023-04-12T13:17:57.977Z,46.70
2023-04-12T13:20:32.677Z,50.90
2023-04-12T13:23:05.929Z,40.00
2023-04-12T13:25:38.743Z,40.90
2023-04-12T13:28:12.968Z,46.40
2023-04-12T13:30:50.301Z,33.70
2023-04-12T13:33:24.470Z,29.70
2023-04-12T13:35:57.211Z,27.70
2023-04-12T13:38:29.830Z,33.60
2023-04-12T13:41:03.470Z,30.40
2023-04-12T13:43:36.825Z,30.20
2023-04-12T13:46:15.708Z,28.40
2023-04-12T13:48:49.015Z,33.00
2023-04-12T13:51:21.811Z,26.50
2023-04-12T13:53:57.148Z,26.00
2023-04-12T13:56:30.933Z,21.80
2023-04-12T13:59:04.056Z,23.10
2023-04-12T14:01:38.073Z,28.00
2023-04-12T14:04:11.521Z,38.10
2023-04-12T14:06:45.819Z,53.00
2023-04-12T14:09:29.517Z,51.90
2023-04-12T14:12:03.246Z,55.80
2023-04-12T14:14:35.898Z,68.60
2023-04-12T14:17:09.186Z,60.90
2023-04-12T14:19:42.308Z,59.00
2023-04-12T14:22:14.956Z,61.40
2023-04-12T14:24:52.784Z,48.90
2023-04-12T14:27:26.479Z,60.40
2023-04-12T14:29:59.446Z,59.10
2023-04-12T14:32:32.606Z,50.60
2023-04-12T14:35:05.991Z,52.30
2023-04-12T14:37:38.671Z,48.00
2023-04-12T14:40:12.696Z,50.00
2023-04-12T14:42:45.517Z,45.40
2023-04-12T14:45:21.220Z,41.40
2023-04-12T14:47:54.388Z,41.30
2023-04-12T14:50:26.994Z,31.80
2023-04-12T14:52:59.684Z,27.10
2023-04-12T14:55:32.765Z,23.40
2023-04-12T14:58:05.522Z,30.50
2023-04-12T15:00:40.399Z,23.20
2023-04-12T15:03:13.511Z,23.50
2023-04-12T15:05:54.309Z,28.30
2023-04-12T15:08:29.314Z,36.00
2023-04-12T15:11:02.154Z,28.30
2023-04-12T15:13:35.384Z,27.00
2023-04-12T15:16:12.987Z,27.40
2023-04-12T15:18:47.169Z,35.20
2023-04-12T15:21:19.984Z,44.30
2023-04-12T15:23:56.500Z,82.00
2023-04-12T15:26:30.703Z,90.50
2023-04-12T15:29:04.364Z,102.10
2023-04-12T15:31:39.924Z,107.10
2023-04-12T15:34:13.716Z,104.10
2023-04-12T15:36:46.606Z,110.10
2023-04-12T15:39:23.482Z,113.30
2023-04-12T15:41:56.334Z,117.90
2023-04-12T15:44:32.184Z,114.40
2023-04-12T15:47:11.005Z,108.60
2023-04-12T15:49:44.762Z,80.60
2023-04-12T15:52:17.504Z,104.30
2023-04-12T15:54:51.964Z,94.00
2023-04-12T15:57:24.706Z,75.60
2023-04-12T16:00:00.072Z,50.60
2023-04-12T16:02:33.997Z,37.60
2023-04-12T16:05:07.895Z,35.80
2023-04-12T16:07:41.149Z,31.20
2023-04-12T16:10:15.495Z,31.20
2023-04-12T16:12:49.710Z,25.10
2023-04-12T16:15:22.272Z,32.10
2023-04-12T16:17:57.083Z,35.50
2023-04-12T16:20:30.779Z,32.60
2023-04-12T16:23:03.925Z,29.90
2023-04-12T16:25:40.570Z,30.60
2023-04-12T16:28:14.657Z,23.20
2023-04-12T16:30:47.512Z,29.30
2023-04-12T16:33:24.037Z,29.50
2023-04-12T16:35:57.142Z,33.50
2023-04-12T16:38:29.900Z,51.20
2023-04-12T16:41:02.638Z,47.80
2023-04-12T16:43:38.024Z,65.20
2023-04-12T16:46:11.235Z,60.70
2023-04-12T16:48:44.054Z,70.60
2023-04-12T16:51:17.219Z,78.10
2023-04-12T16:53:52.609Z,71.10
2023-04-12T16:56:27.383Z,57.80
2023-04-12T16:59:00.391Z,57.20
2023-04-12T17:01:36.019Z,57.20
2023-04-12T17:04:08.803Z,54.50
2023-04-12T17:06:43.059Z,59.40
2023-04-12T17:09:16.758Z,67.50
2023-04-12T17:11:51.094Z,82.50
2023-04-12T17:14:23.991Z,96.50
2023-04-12T17:16:57.605Z,98.40
2023-04-12T17:19:33.818Z,97.20
2023-04-12T17:22:08.583Z,83.70
2023-04-12T17:24:42.916Z,108.50
2023-04-12T17:27:17.589Z,123.60
2023-04-12T17:29:53.569Z,113.90
2023-04-12T17:32:34.929Z,129.00
2023-04-12T17:35:18.122Z,126.90
2023-04-12T17:37:52.734Z,135.50
2023-04-12T17:40:31.499Z,102.20
2023-04-12T17:43:06.726Z,63.20
2023-04-12T17:45:41.360Z,45.30
2023-04-12T17:48:16.646Z,42.60
2023-04-12T17:50:52.357Z,38.80
2023-04-12T17:53:30.963Z,28.10
2023-04-12T17:56:04.756Z,31.90
2023-04-12T17:58:38.141Z,29.00
2023-04-12T18:01:10.723Z,26.70
2023-04-12T18:03:44.701Z,20.80
2023-04-12T18:06:18.564Z,26.80
2023-04-12T18:08:55.628Z,24.80
2023-04-12T18:11:29.007Z,24.20
2023-04-12T18:14:02.069Z,29.00
2023-04-12T18:16:36.521Z,35.50
2023-04-12T18:19:11.535Z,28.70
2023-04-12T18:21:48.488Z,22.10
2023-04-12T18:24:21.816Z,26.80
2023-04-12T18:26:55.229Z,25.10
2023-04-12T18:29:28.708Z,21.10
2023-04-12T18:32:01.533Z,19.50
2023-04-12T18:34:34.956Z,19.30
2023-04-12T18:37:07.992Z,19.60
2023-04-12T18:39:43.093Z,15.40
2023-04-12T18:42:16.348Z,15.20
2023-04-12T18:44:49.425Z,17.30
2023-04-12T18:47:22.159Z,7.40
2023-04-12T18:49:56.790Z,6.60
2023-04-12T18:52:29.816Z,6.70
2023-04-12T18:55:08.614Z,7.20
2023-04-12T18:57:42.218Z,6.90
2023-04-12T19:00:16.639Z,5.30
2023-04-12T19:02:49.849Z,5.00
2023-04-12T19:05:23.085Z,4.40
2023-04-12T19:07:56.506Z,6.60
2023-04-12T19:10:31.063Z,5.00
2023-04-12T19:13:05.202Z,5.70
2023-04-12T19:15:38.615Z,5.70
2023-04-12T19:18:11.668Z,5.70
2023-04-12T19:20:45.363Z,6.20
2023-04-12T19:23:18.042Z,6.50
2023-04-12T19:25:53.253Z,7.10
2023-04-12T19:28:27.458Z,7.30
2023-04-12T19:31:01.736Z,7.80
2023-04-12T19:33:39.162Z,7.30
2023-04-12T19:36:12.123Z,12.80
2023-04-12T19:38:47.997Z,7.20
2023-04-12T19:41:21.905Z,6.20
2023-04-12T19:43:54.859Z,8.70
2023-04-12T19:46:29.110Z,6.60
2023-04-12T19:49:02.262Z,7.40
2023-04-12T19:51:35.555Z,7.30
2023-04-12T19:54:10.071Z,9.20
2023-04-12T19:56:44.334Z,6.50
2023-04-12T19:59:17.968Z,6.80
2023-04-12T20:01:52.532Z,5.40
2023-04-12T20:04:26.004Z,5.90
2023-04-12T20:07:00.109Z,6.30
2023-04-12T20:09:34.631Z,5.60
2023-04-12T20:12:08.478Z,6.70
2023-04-12T20:14:42.228Z,5.70
2023-04-12T20:17:15.254Z,5.70
2023-04-12T20:19:47.933Z,7.00
2023-04-12T20:22:22.395Z,6.10
2023-04-12T20:24:56.136Z,5.50
2023-04-12T20:27:29.776Z,5.00
2023-04-12T20:30:05.318Z,5.70
2023-04-12T20:32:39.272Z,5.40
2023-04-12T20:35:15.627Z,5.10
2023-04-12T20:37:51.237Z,4.70
2023-04-12T20:40:30.243Z,5.40
2023-04-12T20:43:03.652Z,4.90
2023-04-12T20:45:38.346Z,8.00
2023-04-12T20:48:11.873Z,4.80
2023-04-12T20:50:44.589Z,6.80
2023-04-12T20:53:17.752Z,4.90
2023-04-12T20:55:51.067Z,5.60
2023-04-12T20:58:24.764Z,15.00
2023-04-12T21:00:58.876Z,5.30
2023-04-12T21:03:33.003Z,6.70
2023-04-12T21:06:07.102Z,6.40
2023-04-12T21:08:43.577Z,6.00
2023-04-12T21:11:16.487Z,6.70
2023-04-12T21:13:49.846Z,9.30
2023-04-12T21:16:25.201Z,7.00
2023-04-12T21:18:59.580Z,7.20
2023-04-12T21:21:33.396Z,7.60
2023-04-12T21:24:07.328Z,7.70
2023-04-12T21:26:41.166Z,8.00
2023-04-12T21:29:19.871Z,8.50
2023-04-12T21:31:53.007Z,8.40
2023-04-12T21:34:26.353Z,7.60
2023-04-12T21:37:00.436Z,8.40
2023-04-12T21:39:33.528Z,7.80
2023-04-12T21:42:06.397Z,7.20
2023-04-12T21:44:40.474Z,7.40
2023-04-12T21:47:13.109Z,7.70
2023-04-12T21:49:46.131Z,7.10
2023-04-12T21:52:18.969Z,8.50
2023-04-12T21:54:51.676Z,8.40
2023-04-12T21:57:24.545Z,8.20
2023-04-12T21:59:58.103Z,6.80
2023-04-12T22:02:30.908Z,7.30
2023-04-12T22:05:03.737Z,6.30
2023-04-12T22:07:41.709Z,5.60
2023-04-12T22:10:15.151Z,8.00
2023-04-12T22:12:54.150Z,5.50
2023-04-12T22:15:28.607Z,6.00
2023-04-12T22:18:01.758Z,9.10
2023-04-12T22:20:41.625Z,7.40
2023-04-12T22:23:18.331Z,4.90
2023-04-12T22:25:51.079Z,5.30
2023-04-12T22:28:24.693Z,5.00
2023-04-12T22:30:57.978Z,4.10
2023-04-12T22:33:31.314Z,4.40
2023-04-12T22:36:06.382Z,3.30
2023-04-12T22:38:42.466Z,4.30
2023-04-12T22:41:18.227Z,3.70
2023-04-12T22:44:01.619Z,3.90
2023-04-12T22:46:39.404Z,3.50
2023-04-12T22:49:12.499Z,3.80
2023-04-12T22:51:46.561Z,3.90
2023-04-12T22:54:20.900Z,4.30
2023-04-12T22:56:53.381Z,4.00
2023-04-12T22:59:28.493Z,3.90
2023-04-12T23:02:01.501Z,3.70
2023-04-12T23:04:34.852Z,3.80
2023-04-12T23:07:07.954Z,3.50
2023-04-12T23:09:41.452Z,3.80
2023-04-12T23:12:14.660Z,4.40
2023-04-12T23:14:55.836Z,4.00
2023-04-12T23:17:29.549Z,4.60
2023-04-12T23:20:05.818Z,5.30
2023-04-12T23:22:57.453Z,4.40
2023-04-12T23:25:39.808Z,3.90
2023-04-12T23:28:14.420Z,4.60
2023-04-12T23:30:49.298Z,4.80
2023-04-12T23:33:22.824Z,5.60
2023-04-12T23:35:56.314Z,4.70
2023-04-12T23:38:34.037Z,5.20
2023-04-12T23:41:09.277Z,4.90
2023-04-12T23:43:41.955Z,5.30
2023-04-12T23:46:15.282Z,5.80
2023-04-12T23:48:49.533Z,7.60
2023-04-12T23:51:27.416Z,6.10
2023-04-12T23:54:00.196Z,5.70
2023-04-12T23:56:33.297Z,5.90
2023-04-12T23:59:06.583Z,6.20
